Latest Coastal Weather Observations for Cape Byron

IDN60701

Issued at 8:51 am EDT Wednesday 7 December 2016 (issued every 10 minutes, with the page automatically refreshed every 10 minutes)

About coastal observations | Map of coastal stations | Coastal observations for NSW | Marine services | Other Formats
Station Details ID: 058216 Name: CAPE BYRON AWS Lat: -28.64 Lon: 153.64 Height: 95.0 m
Data from the previous 72 hours. | See also: Recent months at Cape Byron
Date/Time
EDT
Temp
°C
Wind Pressure Rain since
9am
mm
Weather Cloud Vis
km
Sea
Height
m
Swell
Dir  Spd
kts
Gust
kts
hPa Trend Height
m
Period
s
Dir
06/03:30am 21.3 NNW 7 14 1017.3 - 40.8 - - - - - - -
06/03:09am 22.0 NNE 15 25 1015.6 - 36.0 - - - - - - -
06/03:00am 22.0 NNE 16 23 1014.5 - 36.0 - - - - - - -
06/02:30am 21.9 NNE 15 22 1014.6 - 36.0 - - - - - - -
06/02:00am 21.6 N 18 26 1013.2 - 36.0 - - - - - - -
06/01:37am 21.5 N 20 32 1013.1 - 34.8 - - - - - - -
06/01:30am 21.2 N 16 25 1013.7 - 32.8 - - - - - - -
06/01:24am 21.3 N 16 26 1013.7 - 29.8 - - - - - - -
06/01:00am 21.5 NNW 17 26 1013.6 - 18.0 - - - - - - -
06/12:33am 21.4 N 25 36 1011.7 - 17.0 - - - - - - -
06/12:30am 21.4 N 23 32 1011.9 - 16.6 - - - - - - -
06/12:20am 21.7 N 15 30 1013.3 - 11.8 - - - - - - -
06/12:00am 21.8 N 20 31 1012.5 - 7.4 Recent precip. - - - - - -
 
Date/Time
EDT
Temp
°C
Wind Pressure Rain since
9am
mm
Weather Cloud Vis
km
Sea
Height
m
Swell
Dir  Spd
kts
Gust
kts
hPa Trend Height
m
Period
s
Dir
05/11:30pm 22.2 NNE 29 49 1011.2 - 7.4 - - - - - - -
05/11:15pm 22.3 NNE 28 41 1010.5 - 7.4 - - - - - - -
05/11:04pm 22.5 NE 26 40 1012.6 - 6.6 - - - - - - -
05/11:00pm 22.5 NE 30 40 1012.8 - 5.4 - - - - - - -
05/10:59pm 22.5 NE 31 40 1012.8 - 4.8 - - - - - - -
05/10:51pm 22.5 ENE 26 38 1012.8 - 2.2 - - - - - - -
05/10:48pm 22.3 ENE 21 34 1013.5 - 1.6 - - - - - - -
05/10:46pm 22.1 ENE 19 27 1013.9 - 1.4 - - - - - - -
05/10:30pm 22.3 N 12 21 1013.9 - 0.0 - - - - - - -
05/10:16pm 22.0 N 16 26 1013.1 - 0.0 - - - - - - -
05/10:00pm 22.2 NNE 22 32 1011.8 - 0.0 - - - - - - -
05/09:31pm 22.1 N 22 32 1011.2 - 0.0 - - - - - - -
05/09:30pm 22.1 N 23 32 1011.2 - 0.0 - - - - - - -
05/09:22pm 22.2 N 22 32 1011.2 - 0.0 - - - - - - -
05/09:00pm 22.0 N 20 27 1011.0 - 0.0 - - - - - - -
05/08:30pm 21.7 N 19 29 1010.7 - 0.0 - - - - - - -
05/08:26pm 21.7 N 19 29 1010.4 - 0.0 - - - - - - -
05/08:00pm 21.7 N 19 27 1009.9 - 0.0 - - - - - - -
05/07:30pm 21.7 N 19 27 1010.1 - 0.0 - - - - - - -
05/07:00pm 21.7 N 18 27 1009.8 - 0.0 - - - - - - -
05/06:30pm 21.8 N 17 25 1009.9 - 0.0 - - - - - - -
05/06:00pm 21.9 N 17 23 1009.6 - 0.0 - - - - - - -
05/05:30pm 22.3 N 16 23 1009.6 - 0.0 - - - - - - -
05/05:00pm 22.7 N 19 27 1009.6 - 0.0 - - - - - - -
05/04:30pm 24.0 N 18 25 1009.8 - 0.0 - - - - - - -
05/04:00pm 24.1 N 19 28 1009.9 - 0.0 - - - - - - -
05/03:45pm 24.0 N 19 29 1010.0 - 0.0 - - - - - - -
05/03:30pm 24.0 N 20 27 1010.0 - 0.0 - - - - - - -
05/03:15pm 24.2 N 20 30 1010.1 - 0.0 - - - - - - -
05/03:00pm 24.1 N 22 29 1010.4 - 0.0 - - - - - - -
05/02:30pm 23.8 N 24 31 1010.7 - 0.0 - - - - - - -
05/02:00pm 23.7 N 23 33 1010.9 - 0.0 - - - - - - -
05/01:39pm 24.2 NNE 22 32 1011.1 - 0.0 - - - - - - -
05/01:30pm 24.1 NNE 22 31 1011.2 - 0.0 - - - - - - -
05/01:00pm 24.0 NNE 23 37 1011.5 - 0.0 - - - - - - -
05/12:35pm 24.1 NNE 23 33 1011.9 - 0.0 - - - - - - -
05/12:30pm 24.1 NNE 24 33 1011.8 - 0.0 - - - - - - -
05/12:00pm 24.0 NNE 21 31 1012.6 - 0.0 - - - - - - -
05/11:31am 23.8 NNE 22 33 1012.7 - 0.0 - - - - - - -
05/11:30am 23.8 NNE 22 31 1012.7 - 0.0 - - - - - - -
05/11:00am 23.7 NNE 22 32 1013.1 - 0.0 - - - - - - -
05/10:30am 23.5 NNE 21 31 1013.0 - 0.0 - - - - - - -
05/10:14am 23.2 NNE 19 29 1013.3 - 0.0 - - - - - - -
05/10:00am 23.3 NNE 19 26 1013.4 - 0.0 - - - - - - -
05/09:30am 22.9 N 19 26 1013.8 - 0.0 - - - - - - -
05/09:00am 22.5 N 18 24 1014.1 - 0.2 - - - - - - -
05/08:39am 22.2 N 18 28 1014.3 - 0.2 - - - - - - -
05/08:30am 22.1 N 21 27 1014.2 - 0.2 - - - - - - -
05/08:00am 21.7 N 16 23 1014.5 - 0.2 - - - - - - -
05/07:30am 21.4 N 17 23 1014.6 - 0.2 - - - - - - -
05/07:00am 21.0 N 15 20 1014.4 - 0.2 - - - - - - -
05/06:30am 20.9 N 15 21 1014.3 - 0.2 - - - - - - -
05/06:00am 21.0 N 17 22 1014.0 - 0.2 - - - - - - -
05/05:30am 21.1 N 17 23 1013.7 - 0.2 - - - - - - -
05/05:00am 21.4 N 19 25 1013.5 - 0.2 - - - - - - -
05/04:30am 21.6 N 20 28 1013.2 - 0.2 - - - - - - -
05/04:00am 21.3 N 16 22 1013.3 - 0.2 - - - - - - -
05/03:30am 21.4 N 16 22 1013.4 - 0.2 - - - - - - -
05/03:00am 21.4 N 15 20 1013.6 - 0.2 - - - - - - -
05/02:30am 21.5 N 15 20 1013.6 - 0.2 - - - - - - -
05/02:00am 21.7 N 19 26 1013.7 - 0.2 - - - - - - -
05/01:30am 21.9 N 19 25 1014.0 - 0.2 - - - - - - -
05/01:00am 21.8 N 15 23 1014.5 - 0.2 - - - - - - -
05/12:30am 22.0 N 16 22 1014.6 - 0.2 - - - - - - -
05/12:00am 22.0 N 17 22 1014.7 - 0.2 - - - - - - -
 
Date/Time
EDT
Temp
°C
Wind Pressure Rain since
9am
mm
Weather Cloud Vis
km
Sea
Height
m
Swell
Dir  Spd
kts
Gust
kts
hPa Trend Height
m
Period
s
Dir
04/11:30pm 21.7 N 17 24 1014.8 - 0.2 - - - - - - -
04/11:00pm 21.7 N 18 24 1014.7 - 0.2 - - - - - - -
04/10:30pm 21.8 N 18 23 1014.7 - 0.2 - - - - - - -
04/10:00pm 21.6 N 15 21 1014.5 - 0.2 - - - - - - -
04/09:30pm 21.7 N 14 19 1014.2 - 0.2 - - - - - - -
04/09:00pm 21.8 N 14 19 1014.0 - 0.2 - - - - - - -
04/08:30pm 21.8 N 14 19 1013.8 - 0.2 - - - - - - -
04/08:00pm 22.1 N 16 21 1013.8 - 0.2 - - - - - - -
04/07:30pm 22.1 N 15 21 1013.3 - 0.2 - - - - - - -
04/07:00pm 22.2 N 16 21 1013.1 - 0.2 - - - - - - -
04/06:30pm 22.9 N 15 20 1013.1 - 0.2 - - - - - - -
04/06:00pm 23.4 N 14 21 1012.9 - 0.2 - - - - - - -
04/05:30pm 24.0 N 15 21 1012.8 - 0.2 - - - - - - -
04/05:00pm 24.4 N 15 20 1012.9 - 0.2 - - - - - - -
04/04:30pm 24.5 N 16 22 1013.0 - 0.2 - - - - - - -
04/04:00pm 24.7 NNE 17 24 1013.1 - 0.2 - - - - - - -
04/03:50pm 24.6 NNE 17 27 1013.0 - 0.2 - - - - - - -
04/03:30pm 24.5 NNE 17 24 1013.2 - 0.2 - - - - - - -
04/03:00pm 24.8 NNE 17 23 1013.4 - 0.2 - - - - - - -
04/02:30pm 25.2 NNE 16 23 1013.6 - 0.2 - - - - - - -
04/02:23pm 25.3 NNE 17 27 1013.7 - 0.2 - - - - - - -
04/02:00pm 25.4 NNE 18 26 1013.9 - 0.2 - - - - - - -
04/01:30pm 25.5 NNE 17 25 1014.1 - 0.2 - - - - - - -
04/01:00pm 25.2 NNE 17 23 1014.4 - 0.2 - - - - - - -
04/12:30pm 25.4 NNE 16 21 1014.8 - 0.2 - - - - - - -
04/12:00pm 25.0 NNE 17 24 1015.1 - 0.2 - - - - - - -
04/11:30am 25.1 NNE 14 21 1015.4 - 0.2 - - - - - - -
04/11:00am 25.1 NNE 12 17 1015.7 - 0.2 - - - - - - -
04/10:30am 25.4 NNE 9 13 1015.9 - 0.0 - - - - - - -
04/10:00am 25.5 N 7 11 1015.9 - 0.0 - - - - - - -
04/09:30am 24.9 N 8 10 1015.9 - 0.0 - - - - - - -
04/09:00am 24.0 N 5 7 1016.1 - 2.8 - - - - - - -

Other Formats:

Comma delimited format used in spreadsheet applications
http://www.bom.gov.au/fwo/IDN60701/IDN60701.94599.axf

JavaScript Object Notation format (JSON) in row-major order
http://www.bom.gov.au/fwo/IDN60701/IDN60701.94599.json